createdAt,value
2022-09-18T00:01:31.262Z,13.43
2022-09-18T00:04:01.941Z,13.44
2022-09-18T00:06:33.144Z,13.45
2022-09-18T00:09:02.744Z,13.49
2022-09-18T00:11:34.646Z,13.41
2022-09-18T00:14:03.282Z,13.35
2022-09-18T00:16:31.291Z,13.28
2022-09-18T00:18:59.559Z,13.28
2022-09-18T00:21:29.848Z,13.24
2022-09-18T00:24:00.682Z,13.19
2022-09-18T00:26:29.713Z,13.21
2022-09-18T00:28:59.289Z,13.18
2022-09-18T00:31:30.055Z,13.20
2022-09-18T00:33:59.237Z,13.25
2022-09-18T00:36:27.764Z,13.29
2022-09-18T00:38:55.726Z,13.27
2022-09-18T00:41:27.334Z,13.35
2022-09-18T00:43:57.056Z,13.37
2022-09-18T00:46:27.955Z,13.37
2022-09-18T00:49:05.081Z,13.51
2022-09-18T00:51:35.351Z,13.58
2022-09-18T00:54:11.191Z,13.57
2022-09-18T00:56:40.805Z,13.49
2022-09-18T00:59:09.995Z,13.52
2022-09-18T01:01:38.094Z,13.55
2022-09-18T01:04:11.802Z,13.53
2022-09-18T01:06:48.831Z,13.54
2022-09-18T01:09:28.676Z,13.58
2022-09-18T01:12:06.541Z,13.49
2022-09-18T01:14:42.256Z,13.57
2022-09-18T01:17:16.745Z,13.51
2022-09-18T01:20:03.356Z,13.58
2022-09-18T01:22:46.425Z,13.48
2022-09-18T01:25:24.582Z,13.52
2022-09-18T01:28:15.231Z,13.57
2022-09-18T01:30:45.882Z,13.60
2022-09-18T01:33:20.607Z,13.63
2022-09-18T01:35:53.765Z,13.60
2022-09-18T01:38:27.817Z,13.71
2022-09-18T01:41:01.424Z,13.63
2022-09-18T01:43:33.277Z,13.66
2022-09-18T01:46:05.057Z,13.69
2022-09-18T01:48:37.569Z,13.64
2022-09-18T01:51:10.715Z,13.54
2022-09-18T01:53:42.378Z,13.54
2022-09-18T01:56:14.585Z,13.54
2022-09-18T01:58:46.138Z,13.50
2022-09-18T02:01:18.467Z,13.43
2022-09-18T02:03:52.536Z,13.42
2022-09-18T02:06:26.530Z,13.41
2022-09-18T02:08:56.498Z,13.42
2022-09-18T02:11:24.885Z,13.37
2022-09-18T02:14:00.502Z,13.38
2022-09-18T02:16:32.933Z,13.32
2022-09-18T02:19:09.339Z,13.19
2022-09-18T02:21:38.682Z,13.04
2022-09-18T02:24:10.545Z,12.99
2022-09-18T02:26:40.698Z,12.94
2022-09-18T02:29:12.864Z,12.90
2022-09-18T02:31:41.764Z,12.87
2022-09-18T02:34:12.587Z,12.90
2022-09-18T02:37:05.101Z,12.88
2022-09-18T02:39:54.554Z,12.82
2022-09-18T02:42:34.870Z,12.82
2022-09-18T02:45:12.013Z,12.88
2022-09-18T02:47:54.872Z,12.89
2022-09-18T02:50:33.048Z,12.88
2022-09-18T02:53:07.093Z,12.83
2022-09-18T02:55:43.418Z,12.86
2022-09-18T02:58:17.029Z,12.86
2022-09-18T03:00:49.380Z,12.77
2022-09-18T03:03:18.839Z,12.62
2022-09-18T03:05:46.832Z,12.57
2022-09-18T03:08:14.705Z,12.58
2022-09-18T03:10:42.641Z,12.57
2022-09-18T03:13:10.571Z,12.54
2022-09-18T03:15:38.479Z,12.51
2022-09-18T03:18:07.776Z,12.49
2022-09-18T03:20:35.755Z,12.52
2022-09-18T03:23:03.903Z,12.57
2022-09-18T03:25:31.755Z,12.58
2022-09-18T03:27:59.660Z,12.53
2022-09-18T03:30:27.788Z,12.58
2022-09-18T03:32:55.679Z,12.64
2022-09-18T03:35:25.307Z,12.64
2022-09-18T03:37:53.892Z,12.72
2022-09-18T03:40:22.182Z,12.74
2022-09-18T03:42:50.808Z,12.78
2022-09-18T03:45:19.068Z,12.80
2022-09-18T03:47:48.730Z,12.79
2022-09-18T03:50:16.660Z,12.72
2022-09-18T03:52:50.972Z,12.67
2022-09-18T03:55:19.564Z,12.61
2022-09-18T03:57:47.493Z,12.52
2022-09-18T04:00:16.390Z,12.40
2022-09-18T04:02:44.808Z,12.29
2022-09-18T04:05:12.806Z,12.27
2022-09-18T04:07:40.655Z,12.33
2022-09-18T04:10:10.446Z,12.28
2022-09-18T04:12:38.527Z,12.30
2022-09-18T04:15:07.569Z,12.35
2022-09-18T04:17:35.413Z,12.37
2022-09-18T04:20:03.903Z,12.38
2022-09-18T04:22:31.759Z,12.44
2022-09-18T04:24:59.599Z,12.45
2022-09-18T04:27:28.930Z,12.52
2022-09-18T04:29:56.740Z,12.54
2022-09-18T04:32:24.595Z,12.47
2022-09-18T04:34:52.460Z,12.41
2022-09-18T04:37:20.273Z,12.34
2022-09-18T04:39:48.159Z,12.36
2022-09-18T04:42:16.124Z,12.27
2022-09-18T04:44:45.310Z,12.30
2022-09-18T04:47:13.217Z,12.32
2022-09-18T04:49:41.386Z,12.26
2022-09-18T04:52:09.217Z,12.15
2022-09-18T04:54:37.653Z,12.12
2022-09-18T04:57:05.973Z,12.07
2022-09-18T04:59:34.047Z,11.97
2022-09-18T05:02:03.382Z,11.90
2022-09-18T05:04:31.384Z,11.99
2022-09-18T05:06:59.252Z,12.01
2022-09-18T05:09:27.143Z,12.00
2022-09-18T05:11:55.164Z,12.05
2022-09-18T05:14:23.007Z,12.05
2022-09-18T05:16:50.841Z,12.16
2022-09-18T05:19:20.121Z,12.24
2022-09-18T05:21:50.167Z,12.27
2022-09-18T05:24:18.555Z,12.35
2022-09-18T05:26:46.588Z,12.39
2022-09-18T05:29:14.405Z,12.34
2022-09-18T05:31:42.963Z,12.33
2022-09-18T05:34:11.258Z,12.40
2022-09-18T05:36:40.416Z,12.48
2022-09-18T05:39:08.232Z,12.44
2022-09-18T05:41:36.304Z,12.36
2022-09-18T05:44:04.503Z,12.38
2022-09-18T05:46:33.243Z,12.36
2022-09-18T05:49:01.410Z,12.34
2022-09-18T05:51:29.257Z,12.38
2022-09-18T05:53:58.441Z,12.43
2022-09-18T05:56:27.337Z,12.40
2022-09-18T05:58:55.321Z,12.34
2022-09-18T06:01:23.299Z,12.42
2022-09-18T06:03:51.467Z,12.39
2022-09-18T06:06:19.435Z,12.45
2022-09-18T06:08:47.235Z,12.44
2022-09-18T06:11:16.609Z,12.48
2022-09-18T06:13:44.679Z,12.54
2022-09-18T06:16:12.471Z,12.63
2022-09-18T06:18:40.348Z,12.63
2022-09-18T06:21:08.934Z,12.65
2022-09-18T06:23:37.107Z,12.85
2022-09-18T06:26:08.584Z,12.92
2022-09-18T06:28:40.691Z,12.92
2022-09-18T06:31:08.726Z,12.93
2022-09-18T06:33:36.533Z,12.94
2022-09-18T06:36:08.458Z,12.98
2022-09-18T06:38:36.241Z,12.96
2022-09-18T06:41:04.045Z,12.98
2022-09-18T06:43:31.881Z,12.94
2022-09-18T06:46:01.082Z,12.90
2022-09-18T06:48:29.634Z,12.91
2022-09-18T06:51:00.191Z,12.90
2022-09-18T06:53:28.597Z,12.76
2022-09-18T06:56:00.307Z,12.56
2022-09-18T06:58:28.172Z,12.67
2022-09-18T07:00:56.267Z,12.75
2022-09-18T07:03:25.795Z,12.75
2022-09-18T07:05:53.689Z,12.64
2022-09-18T07:08:21.644Z,12.56
2022-09-18T07:10:49.589Z,12.74
2022-09-18T07:13:17.461Z,13.16
2022-09-18T07:15:48.541Z,13.32
2022-09-18T07:18:16.624Z,13.38
2022-09-18T07:20:45.838Z,13.62
2022-09-18T07:23:14.210Z,13.56
2022-09-18T07:25:42.181Z,13.49
2022-09-18T07:28:12.320Z,13.55
2022-09-18T07:30:40.752Z,13.67
2022-09-18T07:33:10.841Z,15.23
2022-09-18T07:35:38.704Z,16.52
2022-09-18T07:38:09.134Z,15.95
2022-09-18T07:40:37.784Z,15.32
2022-09-18T07:43:07.648Z,15.32
2022-09-18T07:45:36.113Z,16.96
2022-09-18T07:48:05.283Z,18.30
2022-09-18T07:50:33.248Z,19.61
2022-09-18T07:53:03.693Z,20.01
2022-09-18T07:55:36.030Z,20.14
2022-09-18T07:58:07.203Z,20.73
2022-09-18T08:00:37.904Z,19.59
2022-09-18T08:03:07.852Z,19.96
2022-09-18T08:05:36.428Z,20.98
2022-09-18T08:08:05.236Z,21.97
2022-09-18T08:10:35.730Z,22.86
2022-09-18T08:13:03.936Z,21.31
2022-09-18T08:15:32.490Z,19.59
2022-09-18T08:18:00.300Z,19.29
2022-09-18T08:20:28.315Z,19.98
2022-09-18T08:22:56.129Z,19.36
2022-09-18T08:25:23.950Z,20.28
2022-09-18T08:27:53.242Z,21.61
2022-09-18T08:30:21.303Z,22.83
2022-09-18T08:32:49.238Z,23.49
2022-09-18T08:35:17.252Z,23.54
2022-09-18T08:37:49.048Z,23.60
2022-09-18T08:40:19.857Z,21.90
2022-09-18T08:43:06.587Z,20.21
2022-09-18T08:45:51.865Z,19.07
2022-09-18T08:48:25.555Z,18.16
2022-09-18T08:50:58.278Z,17.48
2022-09-18T08:53:31.596Z,17.14
2022-09-18T08:56:01.692Z,17.13
2022-09-18T08:58:38.764Z,19.62
2022-09-18T09:01:10.479Z,20.98
2022-09-18T09:03:50.393Z,21.51
2022-09-18T09:06:31.475Z,20.40
2022-09-18T09:09:21.046Z,19.68
2022-09-18T09:11:59.960Z,19.29
2022-09-18T09:14:56.050Z,18.70
2022-09-18T09:17:39.639Z,18.04
2022-09-18T09:20:19.675Z,17.48
2022-09-18T09:22:56.923Z,17.62
2022-09-18T09:25:32.181Z,17.65
2022-09-18T09:28:04.536Z,17.47
2022-09-18T09:30:36.311Z,17.61
2022-09-18T09:33:16.106Z,16.95
2022-09-18T09:35:47.138Z,16.57
2022-09-18T09:38:39.328Z,16.34
2022-09-18T09:41:20.410Z,16.37
2022-09-18T09:43:57.321Z,16.03
2022-09-18T09:46:45.692Z,15.88
2022-09-18T09:49:19.023Z,15.75
2022-09-18T09:51:57.813Z,15.72
2022-09-18T09:54:26.127Z,16.18
2022-09-18T09:57:03.976Z,16.38
2022-09-18T09:59:39.883Z,16.50
2022-09-18T10:02:35.241Z,16.57
2022-09-18T10:05:14.933Z,16.44
2022-09-18T10:07:49.576Z,16.22
2022-09-18T10:10:24.696Z,16.20
2022-09-18T10:12:55.942Z,15.75
2022-09-18T10:15:36.345Z,15.49
2022-09-18T10:18:11.466Z,15.53
2022-09-18T10:20:44.493Z,16.08
2022-09-18T10:23:18.317Z,16.32
2022-09-18T10:25:51.258Z,16.41
2022-09-18T10:28:19.221Z,16.74
2022-09-18T10:30:55.235Z,16.80
2022-09-18T10:33:43.451Z,16.59
2022-09-18T10:36:19.562Z,16.49
2022-09-18T10:38:48.028Z,16.43
2022-09-18T10:41:30.245Z,16.46
2022-09-18T10:44:02.684Z,16.22
2022-09-18T10:46:33.175Z,15.79
2022-09-18T10:49:05.964Z,15.59
2022-09-18T10:51:33.921Z,15.35
2022-09-18T10:54:15.511Z,14.83
2022-09-18T10:56:43.407Z,14.41
2022-09-18T10:59:24.503Z,14.03
2022-09-18T11:01:57.523Z,13.77
2022-09-18T11:04:27.924Z,13.75
2022-09-18T11:06:59.080Z,13.88
2022-09-18T11:09:32.676Z,13.98
2022-09-18T11:12:01.091Z,14.10
2022-09-18T11:14:34.255Z,14.17
2022-09-18T11:17:03.446Z,14.26
2022-09-18T11:19:35.190Z,14.36
2022-09-18T11:22:06.709Z,14.32
2022-09-18T11:24:37.014Z,14.39
2022-09-18T11:27:20.399Z,14.38
2022-09-18T11:29:48.335Z,14.43
2022-09-18T11:32:21.562Z,14.27
2022-09-18T11:34:53.797Z,14.36
2022-09-18T11:37:29.507Z,14.36
2022-09-18T11:40:01.973Z,14.43
2022-09-18T11:42:31.663Z,14.53
2022-09-18T11:45:18.862Z,14.69
2022-09-18T11:47:52.439Z,14.89
2022-09-18T11:50:24.742Z,14.82
2022-09-18T11:52:55.752Z,15.02
2022-09-18T11:55:30.993Z,15.30
2022-09-18T11:58:02.839Z,15.12
2022-09-18T12:00:37.584Z,14.51
2022-09-18T12:03:17.043Z,14.28
2022-09-18T12:05:54.193Z,14.03
2022-09-18T12:08:28.324Z,14.05
2022-09-18T12:11:07.236Z,13.93
2022-09-18T12:13:52.778Z,14.08
2022-09-18T12:16:29.024Z,14.14
2022-09-18T12:19:03.712Z,14.23
2022-09-18T12:21:43.780Z,14.41
2022-09-18T12:24:15.098Z,14.48
2022-09-18T12:26:52.291Z,14.58
2022-09-18T12:29:36.159Z,14.62
2022-09-18T12:32:15.773Z,14.55
2022-09-18T12:34:51.608Z,14.59
2022-09-18T12:37:36.369Z,14.78
2022-09-18T12:40:40.110Z,14.73
2022-09-18T12:43:35.223Z,14.75
2022-09-18T12:46:29.153Z,14.68
2022-09-18T12:49:21.454Z,14.75
2022-09-18T12:51:53.556Z,14.70
2022-09-18T12:54:41.776Z,14.63
2022-09-18T12:57:40.628Z,14.59
2022-09-18T13:00:11.685Z,14.52
2022-09-18T13:02:51.090Z,14.35
2022-09-18T13:05:25.128Z,14.35
2022-09-18T13:07:59.927Z,14.24
2022-09-18T13:10:34.943Z,14.19
2022-09-18T13:13:08.110Z,14.24
2022-09-18T13:15:41.610Z,14.57
2022-09-18T13:18:20.834Z,14.93
2022-09-18T13:20:48.941Z,15.08
2022-09-18T13:23:21.632Z,14.94
2022-09-18T13:25:53.133Z,14.82
2022-09-18T13:28:23.434Z,14.66
2022-09-18T13:31:32.627Z,14.52
2022-09-18T13:34:04.338Z,14.60
2022-09-18T13:36:38.202Z,14.68
2022-09-18T13:39:16.968Z,14.63
2022-09-18T13:41:49.411Z,14.55
2022-09-18T13:44:21.416Z,14.53
2022-09-18T13:46:51.101Z,14.43
2022-09-18T13:49:28.892Z,14.38
2022-09-18T13:51:57.148Z,14.16
2022-09-18T13:54:30.283Z,14.00
2022-09-18T13:57:22.057Z,14.03
2022-09-18T13:59:55.795Z,14.03
2022-09-18T14:02:36.056Z,14.05
2022-09-18T14:05:34.137Z,14.08
2022-09-18T14:08:15.682Z,13.87
2022-09-18T14:11:16.336Z,13.57
2022-09-18T14:13:51.788Z,13.01
2022-09-18T14:16:34.484Z,12.75
2022-09-18T14:19:16.811Z,12.82
2022-09-18T14:21:45.982Z,12.94
2022-09-18T14:24:55.119Z,12.98
2022-09-18T14:27:53.615Z,13.11
2022-09-18T14:30:29.151Z,13.29
2022-09-18T14:33:18.070Z,13.35
2022-09-18T14:35:56.288Z,13.54
2022-09-18T14:38:33.351Z,13.52
2022-09-18T14:41:11.743Z,13.54
2022-09-18T14:43:41.182Z,13.60
2022-09-18T14:46:19.546Z,13.75
2022-09-18T14:48:47.715Z,13.71
2022-09-18T14:51:21.197Z,13.87
2022-09-18T14:53:51.162Z,13.89
2022-09-18T14:56:24.232Z,13.98
2022-09-18T14:58:52.599Z,14.13
2022-09-18T15:01:26.464Z,14.27
2022-09-18T15:03:56.560Z,14.27
2022-09-18T15:06:29.364Z,14.47
2022-09-18T15:08:58.801Z,14.52
2022-09-18T15:11:41.676Z,14.74
2022-09-18T15:14:22.429Z,15.05
2022-09-18T15:16:59.398Z,15.51
2022-09-18T15:19:28.567Z,15.62
2022-09-18T15:21:57.122Z,15.63
2022-09-18T15:24:25.866Z,15.52
2022-09-18T15:26:57.015Z,15.28
2022-09-18T15:29:29.094Z,15.18
2022-09-18T15:31:59.349Z,15.07
2022-09-18T15:34:30.283Z,14.90
2022-09-18T15:37:01.376Z,14.81
2022-09-18T15:39:35.400Z,14.68
2022-09-18T15:42:26.948Z,14.53
2022-09-18T15:45:21.531Z,14.42
2022-09-18T15:47:53.895Z,14.38
2022-09-18T15:50:37.283Z,14.22
2022-09-18T15:53:17.091Z,14.16
2022-09-18T15:55:54.141Z,14.10
2022-09-18T15:58:37.196Z,13.99
2022-09-18T16:01:07.663Z,13.92
2022-09-18T16:03:38.687Z,14.01
2022-09-18T16:06:08.581Z,14.08
2022-09-18T16:08:38.943Z,13.98
2022-09-18T16:11:08.140Z,13.98
2022-09-18T16:13:39.653Z,13.83
2022-09-18T16:16:24.943Z,13.79
2022-09-18T16:18:57.370Z,13.75
2022-09-18T16:21:29.334Z,13.61
2022-09-18T16:24:01.234Z,13.67
2022-09-18T16:26:31.815Z,13.57
2022-09-18T16:29:02.395Z,13.56
2022-09-18T16:31:32.324Z,13.56
2022-09-18T16:34:03.413Z,13.41
2022-09-18T16:36:34.165Z,13.49
2022-09-18T16:39:03.933Z,13.48
2022-09-18T16:41:32.879Z,13.42
2022-09-18T16:44:01.173Z,13.48
2022-09-18T16:46:35.259Z,13.53
2022-09-18T16:49:05.050Z,13.46
2022-09-18T16:51:33.465Z,13.31
2022-09-18T16:54:01.488Z,13.21
2022-09-18T16:56:38.854Z,13.22
2022-09-18T16:59:07.608Z,13.21
2022-09-18T17:01:54.190Z,13.20
2022-09-18T17:04:27.759Z,13.20
2022-09-18T17:06:56.056Z,13.19
2022-09-18T17:09:24.123Z,13.14
2022-09-18T17:11:52.453Z,13.15
2022-09-18T17:14:20.521Z,13.17
2022-09-18T17:16:48.353Z,13.17
2022-09-18T17:19:16.334Z,13.17
2022-09-18T17:21:45.945Z,13.24
2022-09-18T17:24:14.071Z,13.18
2022-09-18T17:26:42.934Z,13.23
2022-09-18T17:29:12.219Z,13.24
2022-09-18T17:31:40.323Z,13.21
2022-09-18T17:34:08.398Z,13.10
2022-09-18T17:36:36.884Z,13.11
2022-09-18T17:39:06.199Z,13.04
2022-09-18T17:41:34.917Z,13.02
2022-09-18T17:44:03.334Z,12.97
2022-09-18T17:46:31.291Z,12.92
2022-09-18T17:49:00.661Z,12.96
2022-09-18T17:51:29.433Z,13.02
2022-09-18T17:54:00.095Z,13.07
2022-09-18T17:56:30.879Z,13.02
2022-09-18T17:59:00.390Z,13.07
2022-09-18T18:01:29.787Z,13.10
2022-09-18T18:03:57.740Z,13.06
2022-09-18T18:06:26.108Z,13.00
2022-09-18T18:08:54.123Z,12.91
2022-09-18T18:11:25.260Z,12.82
2022-09-18T18:13:56.215Z,12.78
2022-09-18T18:16:27.501Z,12.76
2022-09-18T18:18:56.917Z,12.68
2022-09-18T18:21:25.957Z,12.57
2022-09-18T18:23:57.110Z,12.52
2022-09-18T18:26:24.950Z,12.53
2022-09-18T18:28:55.489Z,12.53
2022-09-18T18:31:25.689Z,12.44
2022-09-18T18:33:55.593Z,12.39
2022-09-18T18:36:25.689Z,12.41
2022-09-18T18:38:55.985Z,12.40
2022-09-18T18:41:25.609Z,12.40
2022-09-18T18:43:56.413Z,12.34
2022-09-18T18:46:26.255Z,12.28
2022-09-18T18:49:00.013Z,12.31
2022-09-18T18:51:27.952Z,12.24
2022-09-18T18:53:57.024Z,12.22
2022-09-18T18:56:25.087Z,12.25
2022-09-18T18:58:58.628Z,12.22
2022-09-18T19:01:26.735Z,12.21
2022-09-18T19:03:56.367Z,12.21
2022-09-18T19:06:26.525Z,12.21
2022-09-18T19:08:58.446Z,12.19
2022-09-18T19:11:27.214Z,12.19
2022-09-18T19:13:57.824Z,12.21
2022-09-18T19:16:27.109Z,12.24
2022-09-18T19:18:56.476Z,12.24
2022-09-18T19:21:24.365Z,12.33
2022-09-18T19:23:53.474Z,12.32
2022-09-18T19:26:22.210Z,12.38
2022-09-18T19:28:51.713Z,12.48
2022-09-18T19:31:21.719Z,12.52
2022-09-18T19:33:52.334Z,12.56
2022-09-18T19:36:21.407Z,12.55
2022-09-18T19:38:52.432Z,12.52
2022-09-18T19:41:24.262Z,12.55
2022-09-18T19:43:53.295Z,12.48
2022-09-18T19:46:26.114Z,12.46
2022-09-18T19:48:55.056Z,12.54
2022-09-18T19:51:23.575Z,12.53
2022-09-18T19:53:51.944Z,12.50
2022-09-18T19:56:41.621Z,12.54
2022-09-18T19:59:07.706Z,12.59
2022-09-18T20:01:37.106Z,12.54
2022-09-18T20:04:05.138Z,12.55
2022-09-18T20:06:33.297Z,12.61
2022-09-18T20:09:02.260Z,12.65
2022-09-18T20:11:30.094Z,12.68
2022-09-18T20:13:59.560Z,12.64
2022-09-18T20:16:27.670Z,12.65
2022-09-18T20:18:56.971Z,12.60
2022-09-18T20:21:24.802Z,12.59
2022-09-18T20:23:58.182Z,12.51
2022-09-18T20:26:26.966Z,12.50
2022-09-18T20:28:54.735Z,12.60
2022-09-18T20:31:23.947Z,12.61
2022-09-18T20:33:56.514Z,12.66
2022-09-18T20:36:25.819Z,12.66
2022-09-18T20:39:03.421Z,12.59
2022-09-18T20:41:31.968Z,12.64
2022-09-18T20:44:05.148Z,12.61
2022-09-18T20:46:37.246Z,12.58
2022-09-18T20:49:07.875Z,12.59
2022-09-18T20:51:36.375Z,12.53
2022-09-18T20:54:08.389Z,12.52
2022-09-18T20:56:41.423Z,12.51
2022-09-18T20:59:10.927Z,12.42
2022-09-18T21:01:41.625Z,12.39
2022-09-18T21:04:17.342Z,12.37
2022-09-18T21:06:47.337Z,12.37
2022-09-18T21:09:16.070Z,12.43
2022-09-18T21:11:45.004Z,12.52
2022-09-18T21:14:15.735Z,12.57
2022-09-18T21:16:43.976Z,12.53
2022-09-18T21:19:16.158Z,12.55
2022-09-18T21:21:44.253Z,12.53
2022-09-18T21:24:12.391Z,12.59
2022-09-18T21:26:41.887Z,12.52
2022-09-18T21:29:12.724Z,12.63
2022-09-18T21:31:43.477Z,12.66
2022-09-18T21:34:15.566Z,12.59
2022-09-18T21:36:45.423Z,12.68
2022-09-18T21:39:14.845Z,12.70
2022-09-18T21:41:46.527Z,12.72
2022-09-18T21:44:15.799Z,12.75
2022-09-18T21:46:45.938Z,12.77
2022-09-18T21:49:16.495Z,12.74
2022-09-18T21:51:44.907Z,12.68
2022-09-18T21:54:15.666Z,12.66
2022-09-18T21:56:44.318Z,12.57
2022-09-18T21:59:14.464Z,12.56
2022-09-18T22:01:43.413Z,12.55
2022-09-18T22:04:13.114Z,12.50
2022-09-18T22:06:44.987Z,12.47
2022-09-18T22:09:14.994Z,12.44
2022-09-18T22:11:44.733Z,12.36
2022-09-18T22:14:14.773Z,12.36
2022-09-18T22:16:45.355Z,12.31
2022-09-18T22:19:13.894Z,12.28
2022-09-18T22:21:44.648Z,12.28
2022-09-18T22:24:15.832Z,12.29
2022-09-18T22:26:45.760Z,12.18
2022-09-18T22:29:16.843Z,12.14
2022-09-18T22:31:46.698Z,12.06
2022-09-18T22:34:17.379Z,12.01
2022-09-18T22:36:47.402Z,12.07
2022-09-18T22:39:16.357Z,12.04
2022-09-18T22:41:45.217Z,12.03
2022-09-18T22:44:13.586Z,11.99
2022-09-18T22:46:42.985Z,11.94
2022-09-18T22:49:13.645Z,11.99
2022-09-18T22:51:41.983Z,11.95
2022-09-18T22:54:11.589Z,11.90
2022-09-18T22:56:40.632Z,11.95
2022-09-18T22:59:08.682Z,11.94
2022-09-18T23:01:39.286Z,11.89
2022-09-18T23:04:07.280Z,11.90
2022-09-18T23:06:35.644Z,11.86
2022-09-18T23:09:04.687Z,11.84
2022-09-18T23:11:35.318Z,11.84
2022-09-18T23:14:05.427Z,11.89
2022-09-18T23:16:34.794Z,11.79
2022-09-18T23:19:04.748Z,11.73
2022-09-18T23:21:35.664Z,11.72
2022-09-18T23:24:09.150Z,11.74
2022-09-18T23:26:40.947Z,11.79
2022-09-18T23:29:10.889Z,11.72
2022-09-18T23:31:41.432Z,11.77
2022-09-18T23:34:13.393Z,11.80
2022-09-18T23:36:43.188Z,11.72
2022-09-18T23:39:13.921Z,11.69
2022-09-18T23:41:44.187Z,11.67
2022-09-18T23:44:15.566Z,11.64
2022-09-18T23:46:45.209Z,11.61
2022-09-18T23:49:14.260Z,11.55
2022-09-18T23:51:43.862Z,11.57
2022-09-18T23:54:16.592Z,11.58
2022-09-18T23:56:46.692Z,11.55
2022-09-18T23:59:17.780Z,11.54
